Atmospheric History
12/13/2019 16:22  to  12/14/2019 16:22
Change End Date:
To complete the export process:
1) Select all of the data below
2) Copy the data to the clipboard
3) Open a word processor such as Notepad
4) Paste the data into the word processor
5) Save the file

Date/Time (MST), AirTemp, RH, Dewpoint ,AvgWindSpeed, GustWindSpeed, WindDirection, PrecipType, PrecipIntensity, PrecipAccumulation, PrecipRate
12/14/2019 16:21, 19, 80, 14 ,6, 7, S, None, None, ,  
12/14/2019 16:11, 20, 79, 14 ,7, 9, S, None, None, ,  
12/14/2019 16:07, 20, 81, 15 ,7, 9, S, None, None, ,  
12/14/2019 16:01, 20, 82, 15 ,7, 9, S, None, None, ,  
12/14/2019 15:52, 20, 83, 16 ,7, 9, S, None, None, ,  
12/14/2019 15:51, 20, 82, 16 ,7, 9, S, None, None, ,  
12/14/2019 15:41, 21, 80, 16 ,7, 9, S, None, None, ,  
12/14/2019 15:37, 21, 81, 16 ,7, 8, S, None, None, ,  
12/14/2019 15:31, 21, 78, 16 ,4, 9, S, None, None, ,  
12/14/2019 15:22, 21, 79, 16 ,6, 12, S, None, None, ,  
12/14/2019 15:21, 21, 78, 16 ,6, 12, S, None, None, ,  
12/14/2019 15:11, 21, 76, 15 ,7, 11, S, None, None, ,  
12/14/2019 15:07, 21, 77, 15 ,6, 8, S, None, None, ,  
12/14/2019 15:00, 21, 76, 15 ,6, 6, S, None, None, ,  
12/14/2019 14:52, 22, 76, 15 ,2, 4, S, None, None, ,  
12/14/2019 14:50, 22, 76, 15 ,2, 4, S, None, None, ,  
12/14/2019 14:40, 22, 76, 16 ,1, 2, E, Yes, , ,  
12/14/2019 14:37, 21, 77, 16 ,0, 2, S, Yes, , ,  
12/14/2019 14:30, 21, 77, 15 ,1, 2, S, Yes, , ,  
12/14/2019 14:22, 21, 78, 15 ,2, 6, NW, Yes, , ,  
12/14/2019 14:20, 21, 78, 15 ,2, 6, N, Yes, , ,  
12/14/2019 14:10, 21, 75, 15 ,6, 13, NW, Yes, , ,  
12/14/2019 14:07, 21, 73, 14 ,8, 13, NW, Yes, , ,  
12/14/2019 14:00, 22, 70, 14 ,8, 14, NW, Yes, , ,  
12/14/2019 13:52, 22, 65, 13 ,6, 12, NW, Yes, , ,  
12/14/2019 13:50, 22, 65, 12 ,9, 16, NW, None, None, ,  
12/14/2019 13:40, 22, 63, 12 ,12, 21, NW, None, None, ,  
12/14/2019 13:37, 22, 64, 12 ,16, 21, NW, None, None, ,  
12/14/2019 13:30, 23, 67, 14 ,11, 14, NW, Yes, , ,  
12/14/2019 13:22, 23, 69, 15 ,4, 9, W, Yes, , ,  
12/14/2019 13:20, 24, 69, 15 ,6, 9, W, Yes, , ,  
12/14/2019 13:10, 23, 67, 14 ,3, 11, NW, Yes, , ,  
12/14/2019 13:07, 23, 66, 14 ,7, 12, SW, Yes, , ,  
12/14/2019 13:00, 24, 66, 14 ,9, 12, W, Yes, , ,  
12/14/2019 12:52, 24, 65, 14 ,7, 10, SW, Yes, , ,  
12/14/2019 12:50, 24, 65, 14 ,7, 10, SW, Yes, , ,  
12/14/2019 12:40, 23, 64, 13 ,6, 9, SW, None, None, ,  
12/14/2019 12:37, 23, 64, 13 ,4, 9, S, None, None, ,  
12/14/2019 12:30, 23, 64, 13 ,5, 7, S, None, None, ,  
12/14/2019 12:22, 23, 64, 13 ,6, 7, S, None, None, ,  
12/14/2019 12:20, 23, 63, 13 ,4, 6, S, None, None, ,  
12/14/2019 12:10, 23, 67, 14 ,4, 7, S, None, None, ,  
12/14/2019 12:07, 22, 70, 14 ,4, 8, S, None, None, ,  
12/14/2019 11:59, 21, 78, 15 ,6, 9, S, None, None, ,  
12/14/2019 11:52, 20, 85, 16 ,6, 9, SW, None, None, ,  
12/14/2019 11:49, 20, 87, 17 ,6, 9, S, None, None, ,  
12/14/2019 11:39, 17, 89, 15 ,2, 8, SE, None, None, ,  
12/14/2019 11:37, 17, 89, 15 ,2, 8, SW, None, None, ,  
12/14/2019 11:29, 16, 89, 13 ,7, 8, S, None, None, ,  
12/14/2019 11:22, 14, 88, 12 ,1, 6, NW, None, None, ,  
12/14/2019 11:19, 15, 88, 12 ,2, 6, S, None, None, ,  
12/14/2019 11:09, 14, 88, 11 ,6, 7, S, None, None, ,  
12/14/2019 11:07, 13, 88, 11 ,7, 7, S, None, None, ,  
12/14/2019 10:59, 12, 87, 9 ,5, 6, S, None, None, ,  
12/14/2019 10:52, 11, 87, 8 ,4, 5, S, None, None, ,  
12/14/2019 10:49, 11, 87, 8 ,2, 3, S, None, None, ,  
12/14/2019 10:39, 11, 86, 7 ,1, 2, SE, None, None, ,  
12/14/2019 10:37, 10, 86, 7 ,1, 1, S, Yes, , ,  
12/14/2019 10:29, 10, 86, 7 ,0, 1, SW, Yes, , ,  
12/14/2019 10:22, 10, 86, 6 ,0, 0, SW, Yes, , ,  
12/14/2019 10:19, 10, 86, 6 ,0, 1, W, None, None, ,  
12/14/2019 10:09, 9, 86, 6 ,0, 1, SW, Yes, , ,  
12/14/2019 10:07, 9, 86, 6 ,0, 1, W, Yes, , ,  
12/14/2019 09:59, 8, 85, 5 ,0, 1, NE, None, None, ,  
12/14/2019 09:52, 8, 85, 4 ,0, 2, SE, None, None, ,  
12/14/2019 09:49, 7, 85, 4 ,1, 2, SE, None, None, ,  
12/14/2019 09:39, 6, 84, 3 ,1, 1, SW, None, None, ,  
12/14/2019 09:37, 6, 84, 2 ,0, 1, E, None, None, ,  
12/14/2019 09:29, 4, 83, 1 ,0, 1, E, None, None, ,  
12/14/2019 09:22, 4, 82, -1 ,1, 1, E, Yes, , ,  
12/14/2019 09:19, 3, 82, -1 ,0, 2, N, None, None, ,  
12/14/2019 09:09, 3, 82, -1 ,2, 2, W, None, None, ,  
12/14/2019 09:07, 3, 82, -1 ,2, 2, W, Yes, , ,  
12/14/2019 08:58, 4, 82, 0 ,0, 1, SE, None, None, ,  
12/14/2019 08:52, 4, 83, 0 ,1, 1, W, None, None, ,  
12/14/2019 08:48, 4, 82, -1 ,0, 1, NW, None, None, ,  
12/14/2019 08:38, 3, 82, -1 ,0, 1, E, Yes, , ,  
12/14/2019 08:37, 2, 82, -2 ,0, 1, E, None, None, ,  
12/14/2019 08:28, 2, 82, -2 ,0, 1, N, None, None, ,  
12/14/2019 08:22, 2, 81, -2 ,0, 1, NW, None, None, ,  
12/14/2019 08:18, 2, 81, -3 ,1, 1, NW, None, None, ,  
12/14/2019 08:08, 1, 81, -4 ,1, 1, NW, Yes, , ,  
12/14/2019 08:07, 1, 81, -4 ,0, 1, N, Yes, , ,  
12/14/2019 07:58, 0, 81, -4 ,1, 1, NE, Yes, , ,  
12/14/2019 07:52, 0, 80, -5 ,0, 0, S, Yes, , ,  
12/14/2019 07:48, -1, 80, -6 ,0, 0, S, None, None, ,  
12/14/2019 07:38, -2, 79, -7 ,1, 2, SW, None, None, ,  
12/14/2019 07:37, -2, 79, -7 ,1, 2, SW, None, None, ,  
12/14/2019 07:28, -3, 79, -8 ,1, 1, SW, None, None, ,  
12/14/2019 07:22, -4, 78, -9 ,0, 2, SE, None, None, ,  
12/14/2019 07:18, -4, 78, -9 ,1, 2, SE, None, None, ,  
12/14/2019 07:08, -4, 78, -9 ,2, 2, W, None, None, ,  
12/14/2019 07:07, -4, 78, -9 ,2, 2, W, None, None, ,  
12/14/2019 06:58, -3, 78, -8 ,1, 2, SE, None, None, ,  
12/14/2019 06:52, -3, 79, -8 ,1, 1, SW, None, None, ,  
12/14/2019 06:48, -4, 78, -9 ,1, 1, SE, None, None, ,  
12/14/2019 06:38, -4, 78, -9 ,0, 1, NW, None, None, ,  
12/14/2019 06:37, -5, 78, -10 ,1, 1, NW, None, None, ,  
12/14/2019 06:28, -4, 78, -9 ,0, 1, NE, None, None, ,  
12/14/2019 06:22, -4, 78, -9 ,1, 1, NE, None, None, ,  
12/14/2019 06:18, -4, 78, -9 ,0, 0, W, None, None, ,  
12/14/2019 06:08, -4, 78, -9 ,0, 1, N, None, None, ,  
12/14/2019 06:07, -4, 78, -9 ,0, 1, N, None, None, ,  
12/14/2019 05:57, -3, 78, -8 ,0, 2, NE, None, None, ,  
12/14/2019 05:52, -2, 79, -7 ,1, 2, S, None, None, ,  
12/14/2019 05:47, -3, 79, -8 ,2, 3, S, None, None, ,  
12/14/2019 05:37, -3, 79, -8 ,2, 4, W, None, None, ,  
12/14/2019 05:37, -3, 79, -8 ,2, 4, W, None, None, ,  
12/14/2019 05:27, -3, 79, -8 ,1, 6, NW, None, None, ,  
12/14/2019 05:22, -3, 78, -9 ,2, 6, N, None, None, ,  
12/14/2019 05:17, -2, 79, -7 ,1, 1, E, None, None, ,  
12/14/2019 05:07, -2, 80, -7 ,0, 2, E, None, None, ,  
12/14/2019 05:07, -2, 80, -7 ,0, 3, E, None, None, ,  
12/14/2019 04:57, -3, 79, -8 ,0, 2, S, None, None, ,  
12/14/2019 04:52, -2, 79, -7 ,1, 2, SW, None, None, ,  
12/14/2019 04:47, -1, 81, -5 ,2, 2, SW, None, None, ,  
12/14/2019 04:37, -1, 80, -6 ,1, 2, W, None, None, ,  
12/14/2019 04:37, -1, 80, -6 ,1, 2, W, None, None, ,  
12/14/2019 04:27, -3, 79, -8 ,1, 2, NE, None, None, ,  
12/14/2019 04:22, -3, 79, -8 ,1, 2, NE, None, None, ,  
12/14/2019 04:17, -3, 78, -8 ,0, 1, SE, None, None, ,  
12/14/2019 04:07, -1, 81, -5 ,2, 2, S, None, None, ,  
12/14/2019 04:07, -1, 81, -5 ,2, 2, S, None, None, ,  
12/14/2019 03:57, -2, 79, -6 ,1, 2, SW, None, None, ,  
12/14/2019 03:52, -1, 80, -6 ,1, 2, W, None, None, ,  
12/14/2019 03:47, -1, 80, -6 ,1, 2, W, None, None, ,  
12/14/2019 03:37, 0, 81, -4 ,2, 4, S, None, None, ,  
12/14/2019 03:37, 0, 81, -4 ,2, 4, S, None, None, ,  
12/14/2019 03:27, 1, 81, -4 ,2, 4, SE, None, None, ,  
12/14/2019 03:22, 1, 82, -3 ,0, 3, SW, None, None, ,  
12/14/2019 03:17, 1, 82, -4 ,0, 2, SW, None, None, ,  
12/14/2019 03:07, 0, 80, -5 ,0, 5, SE, None, None, ,  
12/14/2019 03:07, 0, 80, -4 ,0, 5, SE, None, None, ,  
12/14/2019 02:56, 2, 81, -3 ,1, 1, E, None, None, ,  
12/14/2019 02:52, 3, 82, -1 ,0, 2, E, None, None, ,  
12/14/2019 02:46, 2, 82, -2 ,1, 2, SE, None, None, ,  
12/14/2019 02:37, 2, 82, -2 ,2, 2, E, None, None, ,  
12/14/2019 02:36, 2, 82, -2 ,1, 2, NE, None, None, ,  
12/14/2019 02:26, 2, 82, -2 ,1, 1, NW, None, None, ,  
12/14/2019 02:22, 3, 82, -1 ,0, 2, NW, None, None, ,  
12/14/2019 02:16, 3, 82, -1 ,1, 3, NW, None, None, ,  
12/14/2019 02:06, 4, 83, 0 ,2, 4, NE, None, None, ,  
12/14/2019 01:56, 4, 83, 0 ,3, 6, NW, None, None, ,  
12/14/2019 01:52, 6, 85, 2 ,1, 3, E, None, None, ,  
12/14/2019 01:46, 6, 85, 2 ,2, 3, E, None, None, ,  
12/14/2019 01:37, 4, 85, 0 ,1, 2, SW, None, None, ,  
12/14/2019 01:36, 4, 85, 0 ,1, 2, SW, None, None, ,  
12/14/2019 01:26, 4, 85, 0 ,3, 6, W, None, None, ,  
12/14/2019 01:22, 4, 85, 1 ,2, 7, NW, None, None, ,  
12/14/2019 01:16, 6, 84, 2 ,4, 7, NW, None, None, ,  
12/14/2019 01:07, 7, 85, 4 ,3, 4, SE, None, None, ,  
12/14/2019 01:06, 7, 85, 4 ,4, 4, SE, None, None, ,  
12/14/2019 00:56, 9, 85, 6 ,1, 1, SE, None, None, ,  
12/14/2019 00:52, 10, 85, 6 ,0, 0, SE, None, None, ,  
12/14/2019 00:46, 10, 85, 6 ,0, 1, NE, None, None, ,  
12/14/2019 00:37, 10, 85, 6 ,0, 1, SE, None, None, ,  
12/14/2019 00:36, 10, 85, 6 ,0, 1, SE, None, None, ,  
12/14/2019 00:26, 9, 84, 5 ,0, 4, E, None, None, ,  
12/14/2019 00:22, 9, 83, 5 ,3, 5, NW, None, None, ,  
12/14/2019 00:16, 10, 83, 6 ,4, 5, NW, None, None, ,  
12/14/2019 00:07, 10, 83, 6 ,1, 2, NE, Yes, , ,  
12/14/2019 00:06, 10, 83, 6 ,1, 2, NE, Yes, , ,  
12/13/2019 23:55, 11, 83, 7 ,0, 3, NW, Yes, , ,  
12/13/2019 23:52, 11, 83, 7 ,1, 4, W, None, None, ,  
12/13/2019 23:45, 11, 83, 7 ,1, 4, SE, None, None, ,  
12/13/2019 23:37, 11, 84, 7 ,1, 6, SE, None, None, ,  
12/13/2019 23:35, 11, 84, 7 ,3, 6, E, None, None, ,  
12/13/2019 23:25, 11, 83, 7 ,4, 6, S, None, None, ,  
12/13/2019 23:22, 11, 83, 7 ,6, 6, S, None, None, ,  
12/13/2019 23:15, 11, 83, 7 ,4, 5, S, None, None, ,  
12/13/2019 23:07, 11, 84, 8 ,3, 4, S, None, None, ,  
12/13/2019 23:05, 11, 84, 8 ,2, 3, S, None, None, ,  
12/13/2019 22:55, 12, 84, 8 ,0, 1, S, None, None, ,  
12/13/2019 22:52, 11, 84, 8 ,1, 1, S, None, None, ,  
12/13/2019 22:45, 11, 84, 7 ,0, 1, SW, None, None, ,  
12/13/2019 22:37, 11, 84, 7 ,0, 2, W, None, None, ,  
12/13/2019 22:35, 11, 84, 7 ,2, 2, SW, None, None, ,  
12/13/2019 22:25, 10, 84, 6 ,1, 2, N, None, None, ,  
12/13/2019 22:22, 10, 84, 6 ,1, 2, N, None, None, ,  
12/13/2019 22:15, 10, 84, 6 ,1, 3, NE, None, None, ,  
12/13/2019 22:07, 10, 83, 6 ,2, 4, NW, None, None, ,  
12/13/2019 22:05, 10, 83, 6 ,3, 4, NW, None, None, ,  
12/13/2019 21:55, 11, 84, 7 ,2, 3, NE, None, None, ,  
12/13/2019 21:52, 11, 84, 7 ,2, 2, N, None, None, ,  
12/13/2019 21:45, 11, 85, 7 ,1, 3, E, None, None, ,  
12/13/2019 21:37, 8, 84, 4 ,2, 3, NE, None, None, ,  
12/13/2019 21:35, 8, 84, 4 ,2, 2, NE, None, None, ,  
12/13/2019 21:25, 8, 84, 5 ,0, 3, S, None, None, ,  
12/13/2019 21:22, 8, 85, 5 ,0, 3, S, None, None, ,  
12/13/2019 21:15, 7, 85, 4 ,1, 6, NE, None, None, ,  
12/13/2019 21:07, 6, 85, 3 ,4, 6, S, None, None, ,  
12/13/2019 21:05, 6, 84, 3 ,3, 4, SW, None, None, ,  
12/13/2019 20:54, 7, 84, 3 ,2, 3, S, None, None, ,  
12/13/2019 20:52, 6, 84, 3 ,2, 2, S, None, None, ,  
12/13/2019 20:44, 8, 84, 4 ,1, 2, NE, None, None, ,  
12/13/2019 20:37, 8, 84, 4 ,1, 2, N, None, None, ,  
12/13/2019 20:34, 8, 84, 4 ,1, 2, W, None, None, ,  
12/13/2019 20:24, 10, 84, 6 ,0, 2, SE, None, None, ,  
12/13/2019 20:22, 11, 85, 7 ,0, 2, SE, None, None, ,  
12/13/2019 20:14, 9, 84, 5 ,0, 3, NE, None, None, ,  
12/13/2019 20:07, 9, 83, 5 ,2, 7, NE, None, None, ,  
12/13/2019 20:04, 9, 82, 4 ,2, 7, NE, None, None, ,  
12/13/2019 19:54, 9, 83, 5 ,7, 8, S, None, None, ,  
12/13/2019 19:52, 9, 83, 5 ,7, 8, S, None, None, ,  
12/13/2019 19:44, 10, 83, 6 ,6, 7, S, None, None, ,  
12/13/2019 19:37, 10, 83, 6 ,6, 7, S, None, None, ,  
12/13/2019 19:34, 11, 83, 7 ,3, 6, S, None, None, ,  
12/13/2019 19:24, 10, 84, 7 ,2, 4, E, None, None, ,  
12/13/2019 19:22, 11, 84, 7 ,2, 4, SE, None, None, ,  
12/13/2019 19:14, 10, 85, 7 ,4, 4, S, None, None, ,  
12/13/2019 19:07, 10, 83, 6 ,2, 4, S, None, None, ,  
12/13/2019 19:04, 11, 83, 7 ,3, 4, S, None, None, ,  
12/13/2019 18:54, 13, 83, 8 ,2, 4, S, None, None, ,  
12/13/2019 18:52, 13, 83, 9 ,2, 4, S, None, None, ,  
12/13/2019 18:44, 13, 84, 10 ,1, 4, SW, None, None, ,  
12/13/2019 18:37, 12, 83, 8 ,1, 6, S, None, None, ,  
12/13/2019 18:34, 12, 83, 8 ,3, 7, S, None, None, ,  
12/13/2019 18:24, 13, 80, 9 ,6, 7, S, None, None, ,  
12/13/2019 18:22, 14, 80, 10 ,4, 5, S, None, None, ,  
12/13/2019 18:14, 16, 78, 10 ,4, 6, S, None, None, ,  
12/13/2019 18:07, 18, 79, 12 ,4, 7, S, None, None, ,  
12/13/2019 18:04, 16, 78, 11 ,4, 7, SW, None, None, ,  
12/13/2019 17:53, 19, 76, 13 ,4, 4, SE, None, None, ,  
12/13/2019 17:52, 19, 76, 13 ,4, 4, SE, None, None, ,  
12/13/2019 17:43, 19, 75, 13 ,2, 2, S, None, None, ,  
12/13/2019 17:37, 20, 72, 12 ,0, 3, W, None, None, ,  
12/13/2019 17:33, 21, 72, 13 ,2, 3, W, None, None, ,  
12/13/2019 17:23, 22, 70, 14 ,2, 4, W, None, None, ,  
12/13/2019 17:22, 22, 69, 14 ,2, 4, SW, None, None, ,  
12/13/2019 17:13, 24, 67, 14 ,4, 7, S, None, None, ,  
12/13/2019 17:07, 24, 63, 14 ,5, 7, SW, None, None, ,  
12/13/2019 17:03, 25, 63, 14 ,5, 7, S, None, None, ,  
12/13/2019 16:53, 24, 69, 16 ,4, 6, SE, None, None, ,  
12/13/2019 16:52, 24, 70, 16 ,4, 6, S, None, None, ,  
12/13/2019 16:43, 24, 71, 16 ,4, 11, SW, None, None, ,  
12/13/2019 16:37, 24, 69, 15 ,7, 12, S, None, None, ,  
12/13/2019 16:33, 24, 71, 16 ,11, 15, SW, None, None, ,  
12/13/2019 16:23, 24, 73, 17 ,11, 14, SW, None, None, ,  
12/13/2019 16:22, 24, 73, 17 ,10, 14, SW, None, None, ,  
Change End Date:

Copyright © 1998-2015 Vaisala, Inc.
All Rights Reserved
Send comments about the data to:
SCAN Web ® is a registered trademark of Vaisala, Inc.
SCAN Web Version 6.0